FLT1315 EICK-EGSS
Flight info
| Callsign | FLT1315 |
|---|---|
| Flight time | 1h 6m |
| Altitude | 33000 |
| Route | VAPAL1N VAPAL DCT BANBA DCT DIQSE DCT ICOSA DCT RUHUN DCT YORQI DCT CAWZE/N0397F230 P2 SIRIC |
| Aircraft | MD83/M-SDFGIRWY/S |
Departure
| Time | 2026-05-06 11:46 |
|---|---|
| Airport | Cork International Airport (EICK) |
Arrival
| Time | 2026-05-06 12:53 |
|---|---|
| Airport | London Stansted Airport (EGSS) |
| Time | Latitude | Longitude | Altitude | Speed | Heading |
|---|---|---|---|---|---|
| 2026-05-06 11:18 | 51.84888 | -8.49089 | 505 ft | 0 kts | 70° |
| 2026-05-06 11:34 | 51.84887 | -8.49096 | 505 ft | 3 kts | 70° |
| 2026-05-06 11:34 | 51.84878 | -8.49137 | 505 ft | 4 kts | 70° |
| 2026-05-06 11:34 | 51.84868 | -8.49178 | 505 ft | 3 kts | 70° |
| 2026-05-06 11:35 | 51.84863 | -8.49211 | 505 ft | 4 kts | 98° |
| 2026-05-06 11:35 | 51.84873 | -8.49239 | 505 ft | 4 kts | 147° |
| 2026-05-06 11:35 | 51.84895 | -8.49256 | 505 ft | 1 kts | 160° |
| 2026-05-06 11:38 | 51.84880 | -8.49247 | 505 ft | 4 kts | 160° |
| 2026-05-06 11:38 | 51.84819 | -8.49218 | 505 ft | 10 kts | 168° |
| 2026-05-06 11:39 | 51.84751 | -8.49195 | 505 ft | 10 kts | 166° |
| 2026-05-06 11:39 | 51.84691 | -8.49157 | 505 ft | 9 kts | 164° |
| 2026-05-06 11:39 | 51.84633 | -8.49127 | 505 ft | 8 kts | 159° |
| 2026-05-06 11:39 | 51.84579 | -8.49094 | 505 ft | 8 kts | 159° |
| 2026-05-06 11:40 | 51.84529 | -8.49064 | 505 ft | 8 kts | 159° |
| 2026-05-06 11:40 | 51.84481 | -8.49035 | 505 ft | 7 kts | 159° |
| 2026-05-06 11:40 | 51.84439 | -8.49010 | 505 ft | 6 kts | 160° |
| 2026-05-06 11:40 | 51.84401 | -8.48987 | 505 ft | 5 kts | 160° |
| 2026-05-06 11:41 | 51.84369 | -8.48977 | 505 ft | 3 kts | 195° |
| 2026-05-06 11:41 | 51.84355 | -8.48996 | 505 ft | 3 kts | 229° |
| 2026-05-06 11:41 | 51.84337 | -8.49046 | 505 ft | 5 kts | 242° |
| 2026-05-06 11:41 | 51.84323 | -8.49089 | 505 ft | 4 kts | 242° |
| 2026-05-06 11:42 | 51.84313 | -8.49122 | 505 ft | 3 kts | 242° |
| 2026-05-06 11:42 | 51.84292 | -8.49184 | 505 ft | 5 kts | 230° |
| 2026-05-06 11:42 | 51.84253 | -8.49189 | 505 ft | 9 kts | 162° |
| 2026-05-06 11:42 | 51.84172 | -8.49141 | 505 ft | 16 kts | 159° |
| 2026-05-06 11:43 | 51.84051 | -8.49066 | 505 ft | 21 kts | 159° |
| 2026-05-06 11:43 | 51.83900 | -8.48975 | 505 ft | 25 kts | 161° |
| 2026-05-06 11:43 | 51.83739 | -8.48883 | 505 ft | 23 kts | 160° |
| 2026-05-06 11:44 | 51.83463 | -8.48718 | 505 ft | 19 kts | 159° |
| 2026-05-06 11:44 | 51.83342 | -8.48648 | 505 ft | 17 kts | 159° |
| 2026-05-06 11:44 | 51.83288 | -8.48553 | 505 ft | 9 kts | 120° |
| 2026-05-06 11:44 | 51.83248 | -8.48540 | 505 ft | 5 kts | 221° |
| 2026-05-06 11:45 | 51.83240 | -8.48572 | 505 ft | 1 kts | 270° |
| 2026-05-06 11:45 | 51.83247 | -8.48587 | 505 ft | 3 kts | 319° |
| 2026-05-06 11:45 | 51.83266 | -8.48601 | 505 ft | 5 kts | 338° |
| 2026-05-06 11:45 | 51.83357 | -8.48654 | 505 ft | 31 kts | 340° |
| 2026-05-06 11:46 | 51.83791 | -8.48908 | 505 ft | 100 kts | 340° |
| 2026-05-06 11:46 | 51.84624 | -8.49386 | 515 ft | 151 kts | 341° |
| 2026-05-06 11:46 | 51.85642 | -8.50009 | 1011 ft | 156 kts | 340° |
| 2026-05-06 11:46 | 51.86646 | -8.50652 | 1723 ft | 155 kts | 340° |
| 2026-05-06 11:47 | 51.87612 | -8.51272 | 2353 ft | 154 kts | 343° |
| 2026-05-06 11:47 | 51.88668 | -8.51705 | 2873 ft | 159 kts | 359° |
| 2026-05-06 11:47 | 51.89752 | -8.51327 | 3420 ft | 162 kts | 21° |
| 2026-05-06 11:47 | 51.90803 | -8.50532 | 3899 ft | 175 kts | 30° |
| 2026-05-06 11:48 | 51.91880 | -8.49214 | 3929 ft | 214 kts | 48° |
| 2026-05-06 11:48 | 51.92695 | -8.46998 | 4153 ft | 246 kts | 71° |
| 2026-05-06 11:48 | 51.92964 | -8.44145 | 4602 ft | 266 kts | 94° |
| 2026-05-06 11:48 | 51.92724 | -8.41157 | 5325 ft | 272 kts | 99° |
| 2026-05-06 11:49 | 51.92429 | -8.38145 | 6071 ft | 275 kts | 100° |
| 2026-05-06 11:49 | 51.92117 | -8.35033 | 6859 ft | 278 kts | 101° |
| 2026-05-06 11:49 | 51.91797 | -8.31973 | 7602 ft | 280 kts | 101° |
| 2026-05-06 11:49 | 51.91475 | -8.28839 | 8344 ft | 284 kts | 99° |
| 2026-05-06 11:50 | 51.91170 | -8.25614 | 9066 ft | 287 kts | 99° |
| 2026-05-06 11:50 | 51.90895 | -8.22451 | 9799 ft | 289 kts | 98° |
| 2026-05-06 11:50 | 51.90628 | -8.19203 | 10334 ft | 297 kts | 98° |
| 2026-05-06 11:50 | 51.90357 | -8.15762 | 10486 ft | 318 kts | 98° |
| 2026-05-06 11:51 | 51.90081 | -8.12100 | 10670 ft | 337 kts | 97° |
| 2026-05-06 11:51 | 51.89791 | -8.08225 | 10857 ft | 355 kts | 97° |
| 2026-05-06 11:51 | 51.89491 | -8.04175 | 11168 ft | 368 kts | 97° |
| 2026-05-06 11:51 | 51.89186 | -8.00039 | 11805 ft | 372 kts | 97° |
| 2026-05-06 11:52 | 51.88878 | -7.95884 | 12537 ft | 372 kts | 97° |
| 2026-05-06 11:52 | 51.88566 | -7.91713 | 13236 ft | 374 kts | 97° |
| 2026-05-06 11:52 | 51.88249 | -7.87508 | 13834 ft | 379 kts | 97° |
| 2026-05-06 11:52 | 51.87926 | -7.83253 | 14403 ft | 383 kts | 96° |
| 2026-05-06 11:53 | 51.87879 | -7.78932 | 14970 ft | 386 kts | 87° |
| 2026-05-06 11:53 | 51.88093 | -7.74583 | 15542 ft | 390 kts | 84° |
| 2026-05-06 11:53 | 51.88364 | -7.70192 | 16092 ft | 394 kts | 84° |
| 2026-05-06 11:53 | 51.88642 | -7.65762 | 16660 ft | 398 kts | 84° |
| 2026-05-06 11:54 | 51.88915 | -7.61288 | 17247 ft | 401 kts | 84° |
| 2026-05-06 11:54 | 51.89177 | -7.56769 | 17822 ft | 405 kts | 85° |
| 2026-05-06 11:54 | 51.89426 | -7.52195 | 18386 ft | 409 kts | 85° |
| 2026-05-06 11:54 | 51.89665 | -7.47585 | 18888 ft | 413 kts | 85° |
| 2026-05-06 11:55 | 51.89897 | -7.42934 | 19401 ft | 416 kts | 85° |
| 2026-05-06 11:55 | 51.90128 | -7.38248 | 19929 ft | 419 kts | 85° |
| 2026-05-06 11:55 | 51.90360 | -7.33526 | 20457 ft | 422 kts | 85° |
| 2026-05-06 11:55 | 51.90597 | -7.28757 | 20945 ft | 427 kts | 85° |
| 2026-05-06 11:56 | 51.90837 | -7.23949 | 21426 ft | 431 kts | 85° |
| 2026-05-06 11:56 | 51.91081 | -7.19103 | 21954 ft | 433 kts | 85° |
| 2026-05-06 11:56 | 51.91328 | -7.14224 | 22443 ft | 437 kts | 85° |
| 2026-05-06 11:56 | 51.91488 | -7.10967 | 22754 ft | 440 kts | 85° |
| 2026-05-06 11:57 | 51.91788 | -7.04385 | 23400 ft | 444 kts | 85° |
| 2026-05-06 11:57 | 51.92009 | -6.99377 | 23821 ft | 448 kts | 85° |
| 2026-05-06 11:57 | 51.92246 | -6.94328 | 24198 ft | 452 kts | 85° |
| 2026-05-06 11:57 | 51.92517 | -6.89236 | 24577 ft | 455 kts | 84° |
| 2026-05-06 11:58 | 51.92837 | -6.84122 | 24970 ft | 458 kts | 83° |
| 2026-05-06 11:58 | 51.93189 | -6.78989 | 25476 ft | 457 kts | 85° |
| 2026-05-06 11:58 | 51.93318 | -6.75521 | 25842 ft | 457 kts | 87° |
| 2026-05-06 11:58 | 51.93418 | -6.70345 | 26114 ft | 463 kts | 88° |
| 2026-05-06 11:59 | 51.93519 | -6.65163 | 26391 ft | 468 kts | 87° |
| 2026-05-06 11:59 | 51.93673 | -6.59885 | 26784 ft | 470 kts | 86° |
| 2026-05-06 11:59 | 51.93880 | -6.54599 | 27302 ft | 469 kts | 85° |
| 2026-05-06 11:59 | 51.94118 | -6.49348 | 27862 ft | 466 kts | 85° |
| 2026-05-06 12:00 | 51.94364 | -6.44119 | 28389 ft | 465 kts | 85° |
| 2026-05-06 12:00 | 51.94590 | -6.38895 | 28831 ft | 465 kts | 85° |
| 2026-05-06 12:00 | 51.94811 | -6.33671 | 29270 ft | 465 kts | 85° |
| 2026-05-06 12:00 | 51.95044 | -6.28378 | 29756 ft | 463 kts | 85° |
| 2026-05-06 12:01 | 51.95113 | -6.23242 | 30172 ft | 462 kts | 97° |
| 2026-05-06 12:01 | 51.94536 | -6.18137 | 30572 ft | 460 kts | 104° |
| 2026-05-06 12:01 | 51.93734 | -6.13132 | 30926 ft | 459 kts | 106° |
| 2026-05-06 12:01 | 51.92884 | -6.08138 | 31212 ft | 460 kts | 106° |
| 2026-05-06 12:02 | 51.92036 | -6.03145 | 31515 ft | 460 kts | 106° |
| 2026-05-06 12:02 | 51.91211 | -5.98149 | 31863 ft | 459 kts | 105° |
| 2026-05-06 12:02 | 51.90414 | -5.93153 | 32190 ft | 458 kts | 105° |
| 2026-05-06 12:02 | 51.89638 | -5.88151 | 32526 ft | 457 kts | 104° |
| 2026-05-06 12:03 | 51.88876 | -5.83165 | 32813 ft | 457 kts | 104° |
| 2026-05-06 12:03 | 51.88116 | -5.78162 | 32936 ft | 459 kts | 104° |
| 2026-05-06 12:03 | 51.86592 | -5.68178 | 33016 ft | 455 kts | 104° |
| 2026-05-06 12:04 | 51.85068 | -5.58286 | 33032 ft | 451 kts | 104° |
| 2026-05-06 12:04 | 51.83495 | -5.48471 | 33034 ft | 451 kts | 105° |
| 2026-05-06 12:05 | 51.81902 | -5.38642 | 33035 ft | 453 kts | 105° |
| 2026-05-06 12:05 | 51.80346 | -5.28780 | 33035 ft | 453 kts | 105° |
| 2026-05-06 12:06 | 51.78987 | -5.18819 | 33030 ft | 454 kts | 101° |
| 2026-05-06 12:06 | 51.77882 | -5.08939 | 33033 ft | 453 kts | 100° |
| 2026-05-06 12:07 | 51.76755 | -4.98941 | 33032 ft | 452 kts | 101° |
| 2026-05-06 12:07 | 51.75585 | -4.88970 | 33031 ft | 452 kts | 101° |
| 2026-05-06 12:08 | 51.74398 | -4.79003 | 33028 ft | 453 kts | 101° |
| 2026-05-06 12:08 | 51.73210 | -4.69035 | 33028 ft | 453 kts | 101° |
| 2026-05-06 12:09 | 51.72033 | -4.59126 | 33025 ft | 453 kts | 101° |
| 2026-05-06 12:09 | 51.70800 | -4.49115 | 33024 ft | 452 kts | 102° |
| 2026-05-06 12:10 | 51.69546 | -4.39177 | 33022 ft | 452 kts | 102° |
| 2026-05-06 12:10 | 51.68310 | -4.29317 | 33023 ft | 452 kts | 102° |
| 2026-05-06 12:11 | 51.67072 | -4.19382 | 33024 ft | 452 kts | 102° |
| 2026-05-06 12:11 | 51.65838 | -4.09456 | 33024 ft | 452 kts | 102° |
| 2026-05-06 12:12 | 51.64600 | -3.99525 | 33024 ft | 452 kts | 102° |
| 2026-05-06 12:12 | 51.63364 | -3.89603 | 33022 ft | 452 kts | 102° |
| 2026-05-06 12:13 | 51.62102 | -3.79694 | 33018 ft | 452 kts | 103° |
| 2026-05-06 12:13 | 51.60773 | -3.69800 | 33019 ft | 452 kts | 103° |
| 2026-05-06 12:14 | 51.59475 | -3.59905 | 33021 ft | 452 kts | 101° |
| 2026-05-06 12:14 | 51.58731 | -3.49853 | 33021 ft | 453 kts | 95° |
| 2026-05-06 12:15 | 51.58240 | -3.39770 | 33021 ft | 453 kts | 95° |
| 2026-05-06 12:15 | 51.57696 | -3.29690 | 33020 ft | 451 kts | 96° |
| 2026-05-06 12:16 | 51.57096 | -3.19690 | 33022 ft | 448 kts | 96° |
| 2026-05-06 12:16 | 51.56480 | -3.09696 | 33039 ft | 448 kts | 96° |
| 2026-05-06 12:17 | 51.55873 | -2.99736 | 33040 ft | 450 kts | 96° |
| 2026-05-06 12:17 | 51.55262 | -2.89724 | 33040 ft | 450 kts | 97° |
| 2026-05-06 12:18 | 51.54548 | -2.79743 | 33019 ft | 449 kts | 97° |
| 2026-05-06 12:18 | 51.53869 | -2.69872 | 33016 ft | 446 kts | 96° |
| 2026-05-06 12:19 | 51.53247 | -2.59982 | 33013 ft | 445 kts | 96° |
| 2026-05-06 12:19 | 51.52938 | -2.54922 | 32554 ft | 455 kts | 96° |
| 2026-05-06 12:19 | 51.52631 | -2.49909 | 32021 ft | 458 kts | 96° |
| 2026-05-06 12:20 | 51.52299 | -2.44842 | 31428 ft | 454 kts | 100° |
| 2026-05-06 12:20 | 51.51407 | -2.40025 | 30864 ft | 449 kts | 115° |
| 2026-05-06 12:20 | 51.50001 | -2.35562 | 30255 ft | 448 kts | 120° |
| 2026-05-06 12:20 | 51.48476 | -2.31205 | 29529 ft | 447 kts | 120° |
| 2026-05-06 12:21 | 51.46939 | -2.26888 | 28778 ft | 444 kts | 120° |
| 2026-05-06 12:21 | 51.45420 | -2.22597 | 28062 ft | 440 kts | 120° |
| 2026-05-06 12:21 | 51.43933 | -2.18337 | 27358 ft | 436 kts | 120° |
| 2026-05-06 12:21 | 51.42482 | -2.14099 | 26676 ft | 433 kts | 119° |
| 2026-05-06 12:22 | 51.41053 | -2.09869 | 25980 ft | 429 kts | 119° |
| 2026-05-06 12:22 | 51.39647 | -2.05674 | 25306 ft | 427 kts | 119° |
| 2026-05-06 12:22 | 51.38248 | -2.01487 | 24618 ft | 425 kts | 118° |
| 2026-05-06 12:22 | 51.37194 | -1.97088 | 23932 ft | 424 kts | 103° |
| 2026-05-06 12:23 | 51.36729 | -1.92435 | 23197 ft | 423 kts | 97° |
| 2026-05-06 12:23 | 51.36426 | -1.87768 | 22459 ft | 420 kts | 96° |
| 2026-05-06 12:23 | 51.36152 | -1.83137 | 21784 ft | 416 kts | 95° |
| 2026-05-06 12:23 | 51.35881 | -1.78544 | 21130 ft | 413 kts | 95° |
| 2026-05-06 12:24 | 51.35600 | -1.73996 | 20483 ft | 409 kts | 96° |
| 2026-05-06 12:24 | 51.35302 | -1.69493 | 19844 ft | 405 kts | 96° |
| 2026-05-06 12:24 | 51.34992 | -1.65091 | 19223 ft | 402 kts | 96° |
| 2026-05-06 12:24 | 51.34668 | -1.60671 | 18620 ft | 399 kts | 96° |
| 2026-05-06 12:25 | 51.34344 | -1.56327 | 18302 ft | 387 kts | 96° |
| 2026-05-06 12:25 | 51.34026 | -1.52112 | 17852 ft | 379 kts | 96° |
| 2026-05-06 12:25 | 51.33705 | -1.47985 | 17545 ft | 367 kts | 96° |
| 2026-05-06 12:25 | 51.33392 | -1.44008 | 17342 ft | 353 kts | 96° |
| 2026-05-06 12:26 | 51.33089 | -1.40160 | 17187 ft | 348 kts | 97° |
| 2026-05-06 12:26 | 51.32783 | -1.36236 | 17049 ft | 366 kts | 96° |
| 2026-05-06 12:26 | 51.32463 | -1.32096 | 16903 ft | 380 kts | 96° |
| 2026-05-06 12:26 | 51.32139 | -1.27912 | 16732 ft | 377 kts | 96° |
| 2026-05-06 12:27 | 51.31819 | -1.23774 | 16563 ft | 374 kts | 96° |
| 2026-05-06 12:27 | 51.31504 | -1.19676 | 16386 ft | 371 kts | 96° |
| 2026-05-06 12:27 | 51.31460 | -1.15577 | 16208 ft | 369 kts | 81° |
| 2026-05-06 12:27 | 51.31964 | -1.11543 | 16034 ft | 370 kts | 74° |
| 2026-05-06 12:28 | 51.32588 | -1.07594 | 15848 ft | 364 kts | 74° |
| 2026-05-06 12:28 | 51.33216 | -1.03679 | 15668 ft | 364 kts | 73° |
| 2026-05-06 12:28 | 51.33848 | -0.99759 | 15493 ft | 363 kts | 74° |
| 2026-05-06 12:28 | 51.34476 | -0.95848 | 15320 ft | 364 kts | 74° |
| 2026-05-06 12:29 | 51.35094 | -0.91901 | 15143 ft | 365 kts | 74° |
| 2026-05-06 12:29 | 51.35696 | -0.87969 | 14970 ft | 364 kts | 75° |
| 2026-05-06 12:29 | 51.36282 | -0.84026 | 14798 ft | 366 kts | 75° |
| 2026-05-06 12:29 | 51.36864 | -0.80078 | 14629 ft | 363 kts | 76° |
| 2026-05-06 12:30 | 51.37441 | -0.76152 | 14452 ft | 364 kts | 75° |
| 2026-05-06 12:30 | 51.38016 | -0.72212 | 14284 ft | 362 kts | 75° |
| 2026-05-06 12:30 | 51.38588 | -0.68321 | 14110 ft | 357 kts | 75° |
| 2026-05-06 12:30 | 51.39157 | -0.64434 | 13947 ft | 359 kts | 75° |
| 2026-05-06 12:31 | 51.39726 | -0.60560 | 13778 ft | 356 kts | 75° |
| 2026-05-06 12:31 | 51.40293 | -0.56710 | 13592 ft | 355 kts | 75° |
| 2026-05-06 12:31 | 51.40857 | -0.52862 | 13404 ft | 355 kts | 75° |
| 2026-05-06 12:31 | 51.41416 | -0.49049 | 13239 ft | 348 kts | 75° |
| 2026-05-06 12:32 | 51.41958 | -0.45282 | 13080 ft | 351 kts | 75° |
| 2026-05-06 12:32 | 51.42496 | -0.41527 | 12923 ft | 348 kts | 75° |
| 2026-05-06 12:32 | 51.43121 | -0.37758 | 12752 ft | 345 kts | 64° |
| 2026-05-06 12:32 | 51.44407 | -0.34559 | 12617 ft | 342 kts | 41° |
| 2026-05-06 12:33 | 51.46333 | -0.32392 | 12418 ft | 337 kts | 25° |
| 2026-05-06 12:33 | 51.48427 | -0.30750 | 12204 ft | 338 kts | 22° |
| 2026-05-06 12:33 | 51.50548 | -0.29172 | 12014 ft | 334 kts | 22° |
| 2026-05-06 12:33 | 51.52671 | -0.27640 | 11837 ft | 333 kts | 21° |
| 2026-05-06 12:34 | 51.54783 | -0.26124 | 11652 ft | 331 kts | 22° |
| 2026-05-06 12:34 | 51.56889 | -0.24612 | 11483 ft | 333 kts | 22° |
| 2026-05-06 12:34 | 51.58992 | -0.23070 | 11326 ft | 330 kts | 22° |
| 2026-05-06 12:34 | 51.61070 | -0.21504 | 11155 ft | 329 kts | 23° |
| 2026-05-06 12:35 | 51.63131 | -0.19933 | 10984 ft | 328 kts | 23° |
| 2026-05-06 12:35 | 51.65162 | -0.18364 | 10808 ft | 318 kts | 23° |
| 2026-05-06 12:35 | 51.67108 | -0.16856 | 10642 ft | 302 kts | 24° |
| 2026-05-06 12:35 | 51.68951 | -0.15420 | 10553 ft | 287 kts | 24° |
| 2026-05-06 12:36 | 51.70646 | -0.14091 | 10476 ft | 272 kts | 24° |
| 2026-05-06 12:36 | 51.72359 | -0.12759 | 10382 ft | 262 kts | 23° |
| 2026-05-06 12:36 | 51.73979 | -0.11506 | 10320 ft | 264 kts | 22° |
| 2026-05-06 12:36 | 51.75677 | -0.10208 | 10232 ft | 267 kts | 22° |
| 2026-05-06 12:37 | 51.77365 | -0.08993 | 10122 ft | 270 kts | 21° |
| 2026-05-06 12:37 | 51.79028 | -0.07825 | 9937 ft | 272 kts | 21° |
| 2026-05-06 12:37 | 51.80760 | -0.06609 | 9809 ft | 270 kts | 20° |
| 2026-05-06 12:37 | 51.82479 | -0.05410 | 9721 ft | 269 kts | 21° |
| 2026-05-06 12:38 | 51.84202 | -0.04210 | 9588 ft | 269 kts | 21° |
| 2026-05-06 12:38 | 51.85836 | -0.03067 | 9435 ft | 268 kts | 21° |
| 2026-05-06 12:38 | 51.87543 | -0.01880 | 9294 ft | 267 kts | 21° |
| 2026-05-06 12:38 | 51.89256 | -0.00691 | 9130 ft | 267 kts | 21° |
| 2026-05-06 12:39 | 51.90951 | 0.00495 | 8991 ft | 262 kts | 20° |
| 2026-05-06 12:39 | 51.92605 | 0.01648 | 8831 ft | 256 kts | 21° |
| 2026-05-06 12:39 | 51.94227 | 0.02787 | 8731 ft | 253 kts | 22° |
| 2026-05-06 12:39 | 51.95830 | 0.03930 | 8640 ft | 250 kts | 22° |
| 2026-05-06 12:40 | 51.97429 | 0.05063 | 8541 ft | 252 kts | 22° |
| 2026-05-06 12:40 | 51.99079 | 0.06037 | 8436 ft | 253 kts | 9° |
| 2026-05-06 12:40 | 52.00814 | 0.06343 | 8358 ft | 250 kts | 2° |
| 2026-05-06 12:40 | 52.02548 | 0.06471 | 8279 ft | 249 kts | 2° |
| 2026-05-06 12:41 | 52.04283 | 0.06578 | 8199 ft | 251 kts | 1° |
| 2026-05-06 12:41 | 52.06032 | 0.06668 | 8124 ft | 252 kts | 1° |
| 2026-05-06 12:41 | 52.07786 | 0.06742 | 7972 ft | 254 kts | 1° |
| 2026-05-06 12:41 | 52.09563 | 0.06797 | 7701 ft | 256 kts | 358° |
| 2026-05-06 12:42 | 52.11238 | 0.06074 | 7601 ft | 249 kts | 330° |
| 2026-05-06 12:42 | 52.12585 | 0.04311 | 7536 ft | 250 kts | 311° |
| 2026-05-06 12:42 | 52.13490 | 0.01916 | 7453 ft | 247 kts | 289° |
| 2026-05-06 12:42 | 52.13579 | -0.00814 | 7365 ft | 244 kts | 256° |
| 2026-05-06 12:43 | 52.12758 | -0.03190 | 7291 ft | 247 kts | 224° |
| 2026-05-06 12:43 | 52.11251 | -0.04557 | 7225 ft | 252 kts | 193° |
| 2026-05-06 12:43 | 52.09501 | -0.04976 | 7155 ft | 254 kts | 185° |
| 2026-05-06 12:43 | 52.07749 | -0.05193 | 7066 ft | 253 kts | 182° |
| 2026-05-06 12:44 | 52.06001 | -0.05316 | 7014 ft | 251 kts | 180° |
| 2026-05-06 12:44 | 52.04834 | -0.05351 | 7011 ft | 255 kts | 180° |
| 2026-05-06 12:44 | 52.03057 | -0.05360 | 7002 ft | 255 kts | 179° |
| 2026-05-06 12:44 | 52.01309 | -0.05120 | 6972 ft | 253 kts | 159° |
| 2026-05-06 12:45 | 51.99775 | -0.03773 | 7000 ft | 252 kts | 142° |
| 2026-05-06 12:45 | 51.98361 | -0.02086 | 6998 ft | 251 kts | 141° |
| 2026-05-06 12:45 | 51.95577 | 0.01246 | 6988 ft | 245 kts | 140° |
| 2026-05-06 12:46 | 51.94191 | 0.02851 | 6989 ft | 246 kts | 148° |
| 2026-05-06 12:46 | 51.92545 | 0.03621 | 6995 ft | 252 kts | 180° |
| 2026-05-06 12:46 | 51.90815 | 0.03185 | 7003 ft | 251 kts | 193° |
| 2026-05-06 12:46 | 51.89123 | 0.02492 | 6988 ft | 252 kts | 194° |
| 2026-05-06 12:47 | 51.87438 | 0.01781 | 6976 ft | 248 kts | 194° |
| 2026-05-06 12:47 | 51.85780 | 0.01057 | 6910 ft | 246 kts | 194° |
| 2026-05-06 12:47 | 51.84121 | 0.00323 | 6464 ft | 250 kts | 194° |
| 2026-05-06 12:47 | 51.82427 | -0.00427 | 5867 ft | 257 kts | 194° |
| 2026-05-06 12:48 | 51.80646 | -0.01175 | 4936 ft | 269 kts | 195° |
| 2026-05-06 12:48 | 51.78817 | -0.01837 | 4259 ft | 269 kts | 184° |
| 2026-05-06 12:48 | 51.77030 | -0.01405 | 3874 ft | 255 kts | 152° |
| 2026-05-06 12:48 | 51.75742 | 0.00339 | 3594 ft | 235 kts | 118° |
| 2026-05-06 12:49 | 51.75290 | 0.02709 | 3445 ft | 213 kts | 82° |
| 2026-05-06 12:49 | 51.75814 | 0.04741 | 3373 ft | 191 kts | 37° |
| 2026-05-06 12:49 | 51.76830 | 0.06034 | 3311 ft | 184 kts | 38° |
| 2026-05-06 12:49 | 51.77741 | 0.07429 | 3186 ft | 180 kts | 41° |
| 2026-05-06 12:50 | 51.78673 | 0.08780 | 2926 ft | 180 kts | 39° |
| 2026-05-06 12:50 | 51.79605 | 0.10144 | 2617 ft | 182 kts | 40° |
| 2026-05-06 12:50 | 51.80533 | 0.11531 | 2354 ft | 182 kts | 40° |
| 2026-05-06 12:50 | 51.81439 | 0.12894 | 2092 ft | 173 kts | 38° |
| 2026-05-06 12:51 | 51.82291 | 0.14175 | 1917 ft | 162 kts | 39° |
| 2026-05-06 12:51 | 51.83089 | 0.15358 | 1684 ft | 151 kts | 39° |
| 2026-05-06 12:51 | 51.83844 | 0.16488 | 1382 ft | 145 kts | 38° |
| 2026-05-06 12:51 | 51.84564 | 0.17545 | 1162 ft | 136 kts | 39° |
| 2026-05-06 12:52 | 51.85240 | 0.18573 | 952 ft | 134 kts | 39° |
| 2026-05-06 12:52 | 51.85938 | 0.19651 | 803 ft | 144 kts | 38° |
| 2026-05-06 12:52 | 51.86687 | 0.20762 | 642 ft | 148 kts | 39° |
| 2026-05-06 12:52 | 51.87443 | 0.21896 | 449 ft | 144 kts | 37° |
| 2026-05-06 12:53 | 51.88140 | 0.22939 | 336 ft | 130 kts | 39° |
| 2026-05-06 12:53 | 51.88692 | 0.23769 | 338 ft | 67 kts | 44° |
| 2026-05-06 12:53 | 51.88875 | 0.24191 | 348 ft | 30 kts | 73° |
| 2026-05-06 12:53 | 51.88917 | 0.24420 | 347 ft | 15 kts | 78° |
| 2026-05-06 12:54 | 51.88889 | 0.24537 | 355 ft | 9 kts | 132° |
| 2026-05-06 12:54 | 51.88855 | 0.24593 | 351 ft | 7 kts | 135° |
| 2026-05-06 12:54 | 51.88818 | 0.24661 | 354 ft | 9 kts | 121° |
| 2026-05-06 12:54 | 51.88825 | 0.24745 | 358 ft | 8 kts | 45° |
| 2026-05-06 12:55 | 51.88868 | 0.24806 | 349 ft | 9 kts | 43° |
| 2026-05-06 12:55 | 51.88914 | 0.24876 | 349 ft | 10 kts | 43° |
| 2026-05-06 12:55 | 51.88962 | 0.24955 | 350 ft | 10 kts | 59° |
| 2026-05-06 12:55 | 51.88956 | 0.25049 | 357 ft | 8 kts | 120° |
| 2026-05-06 12:56 | 51.88922 | 0.25127 | 351 ft | 9 kts | 126° |
| 2026-05-06 12:56 | 51.88916 | 0.25153 | 355 ft | 1 kts | 85° |
| 2026-05-06 12:56 | 51.88927 | 0.25188 | 353 ft | 5 kts | 52° |
| 2026-05-06 12:56 | 51.88947 | 0.25217 | 353 ft | 0 kts | 41° |